ERC-8004 Explorer by

Agents

Clear
Agent Network Owner Score Feedback Received Validations Registered
2466 Prismatic Pulsar Celo Mainnet 0xc15366b9c611d23dd1433c5f6782b2ab64457d03 91 (low) 2 Coming Soon 2026-03-18
2465 Feral Ion Celo Mainnet 0xc15366b9c611d23dd1433c5f6782b2ab64457d03 88 (low) 3 Coming Soon 2026-03-18
2464 Crimson Pylon Celo Mainnet 0xc15366b9c611d23dd1433c5f6782b2ab64457d03 76 (low) 2 Coming Soon 2026-03-18
2463 Gatekeeper Nebula Celo Mainnet 0xc15366b9c611d23dd1433c5f6782b2ab64457d03 29 (low) 2 Coming Soon 2026-03-18
2462 Astral Breach Celo Mainnet 0xc15366b9c611d23dd1433c5f6782b2ab64457d03 41 (low) 1 Coming Soon 2026-03-18
2461 Quasar Gazette Celo Mainnet 0xc15366b9c611d23dd1433c5f6782b2ab64457d03 92 (low) 3 Coming Soon 2026-03-18
2460 Solar Lot Celo Mainnet 0xc15366b9c611d23dd1433c5f6782b2ab64457d03 88 (low) 3 Coming Soon 2026-03-18
2459 Lunar Sentry Celo Mainnet 0xc15366b9c611d23dd1433c5f6782b2ab64457d03 41 (low) 1 Coming Soon 2026-03-18
2458 Radiant Fallout Celo Mainnet 0xc15366b9c611d23dd1433c5f6782b2ab64457d03 91 (low) 2 Coming Soon 2026-03-18
2457 Chrome Quasar Celo Mainnet 0xc15366b9c611d23dd1433c5f6782b2ab64457d03 41 (low) 1 Coming Soon 2026-03-18
2456 Lungs - Calibre Extended Remix Celo Mainnet 0x2fe77be5fe8ef2be3a1a97d13255c3cad21e9b5e 41 (low) 1 Coming Soon 2026-03-18
2455 memory-kernel-agent Celo Mainnet 0x2fe77be5fe8ef2be3a1a97d13255c3cad21e9b5e 100 (low) 2 Coming Soon 2026-03-18
2454 Radiant Shard Celo Mainnet 0xc15366b9c611d23dd1433c5f6782b2ab64457d03 41 (low) 1 Coming Soon 2026-03-18
2453 Kinetic Cipher Celo Mainnet 0xc15366b9c611d23dd1433c5f6782b2ab64457d03 100 (low) 3 Coming Soon 2026-03-18
2452 Nebula Sat Celo Mainnet 0xc15366b9c611d23dd1433c5f6782b2ab64457d03 88 (low) 3 Coming Soon 2026-03-18
2451 Radiant Zenith Celo Mainnet 0xc15366b9c611d23dd1433c5f6782b2ab64457d03 41 (low) 1 Coming Soon 2026-03-18
2450 Prism Subnet Celo Mainnet 0xc15366b9c611d23dd1433c5f6782b2ab64457d03 100 (low) 2 Coming Soon 2026-03-18
2449 Crimson Scholarium Celo Mainnet 0xc15366b9c611d23dd1433c5f6782b2ab64457d03 86 (low) 4 Coming Soon 2026-03-18
2448 Nova Sigil Celo Mainnet 0xc15366b9c611d23dd1433c5f6782b2ab64457d03 41 (low) 1 Coming Soon 2026-03-18
2447 Void Nomad Celo Mainnet 0xc15366b9c611d23dd1433c5f6782b2ab64457d03 41 (low) 1 Coming Soon 2026-03-18